createdAt,value
2022-12-01T00:00:59.169Z,170.20
2022-12-01T00:01:59.370Z,168.40
2022-12-01T00:02:59.514Z,170.60
2022-12-01T00:03:59.584Z,171.10
2022-12-01T00:04:59.744Z,166.80
2022-12-01T00:05:59.862Z,182.50
2022-12-01T00:07:00.001Z,170.60
2022-12-01T00:08:00.243Z,178.70
2022-12-01T00:09:00.276Z,174.90
2022-12-01T00:10:00.425Z,181.10
2022-12-01T00:11:00.561Z,172.50
2022-12-01T00:12:00.689Z,174.50
2022-12-01T00:13:00.829Z,171.60
2022-12-01T00:14:00.956Z,179.40
2022-12-01T00:15:01.211Z,166.50
2022-12-01T00:16:01.271Z,176.90
2022-12-01T00:17:01.418Z,173.60
2022-12-01T00:18:01.545Z,179.60
2022-12-01T00:19:01.678Z,170.10
2022-12-01T00:20:01.820Z,171.00
2022-12-01T00:21:01.980Z,162.60
2022-12-01T00:22:02.103Z,165.70
2022-12-01T00:23:02.252Z,170.60
2022-12-01T00:24:02.386Z,162.40
2022-12-01T00:25:02.595Z,167.00
2022-12-01T00:26:02.731Z,171.90
2022-12-01T00:27:02.867Z,165.60
2022-12-01T00:28:02.980Z,165.30
2022-12-01T00:29:03.104Z,172.50
2022-12-01T00:30:04.205Z,171.60
2022-12-01T00:31:03.445Z,168.50
2022-12-01T00:32:03.673Z,175.90
2022-12-01T00:33:03.705Z,177.40
2022-12-01T00:34:06.898Z,179.50
2022-12-01T00:35:05.043Z,178.10
2022-12-01T00:36:04.166Z,168.50
2022-12-01T00:37:04.292Z,177.30
2022-12-01T00:38:04.411Z,171.50
2022-12-01T00:39:04.546Z,178.90
2022-12-01T00:40:04.671Z,176.20
2022-12-01T00:41:04.801Z,180.90
2022-12-01T00:42:10.051Z,190.00
2022-12-01T00:43:06.121Z,174.50
2022-12-01T00:44:05.235Z,167.00
2022-12-01T00:45:05.359Z,170.00
2022-12-01T00:46:05.588Z,172.80
2022-12-01T00:47:05.622Z,175.40
2022-12-01T00:48:05.753Z,184.90
2022-12-01T00:49:05.897Z,175.00
2022-12-01T00:50:06.041Z,177.20
2022-12-01T00:51:06.187Z,169.10
2022-12-01T00:52:06.312Z,170.20
2022-12-01T00:53:06.449Z,182.60
2022-12-01T00:54:06.565Z,175.10
2022-12-01T00:55:06.708Z,169.40
2022-12-01T00:56:06.846Z,182.00
2022-12-01T00:57:06.984Z,173.80
2022-12-01T00:58:07.115Z,173.70
2022-12-01T00:59:07.251Z,173.70
2022-12-01T01:00:07.386Z,179.80
2022-12-01T01:01:07.673Z,177.60
2022-12-01T01:02:07.774Z,179.80
2022-12-01T01:03:07.815Z,176.30
2022-12-01T01:04:07.954Z,171.80
2022-12-01T01:05:08.115Z,177.70
2022-12-01T01:06:08.276Z,178.30
2022-12-01T01:07:08.424Z,164.60
2022-12-01T01:08:08.651Z,163.40
2022-12-01T01:09:08.672Z,165.90
2022-12-01T01:10:08.805Z,160.40
2022-12-01T01:11:08.960Z,168.40
2022-12-01T01:12:09.101Z,172.40
2022-12-01T01:13:09.230Z,151.60
2022-12-01T01:14:09.375Z,171.40
2022-12-01T01:15:09.516Z,158.10
2022-12-01T01:16:09.695Z,158.60
2022-12-01T01:17:09.897Z,151.00
2022-12-01T01:18:09.943Z,146.70
2022-12-01T01:19:10.085Z,140.60
2022-12-01T01:20:10.220Z,145.30
2022-12-01T01:21:10.389Z,147.70
2022-12-01T01:22:10.515Z,143.10
2022-12-01T01:23:10.648Z,145.10
2022-12-01T01:24:10.787Z,149.70
2022-12-01T01:25:10.932Z,147.70
2022-12-01T01:26:11.077Z,139.00
2022-12-01T01:27:11.218Z,148.40
2022-12-01T01:28:11.351Z,145.50
2022-12-01T01:29:11.494Z,138.00
2022-12-01T01:30:11.636Z,148.40
2022-12-01T01:31:11.857Z,148.20
2022-12-01T01:32:11.920Z,142.50
2022-12-01T01:33:12.062Z,150.30
2022-12-01T01:34:12.188Z,152.60
2022-12-01T01:35:12.322Z,150.90
2022-12-01T01:36:12.472Z,146.40
2022-12-01T01:37:12.625Z,147.90
2022-12-01T01:38:12.755Z,147.30
2022-12-01T01:39:12.890Z,161.20
2022-12-01T01:40:13.014Z,155.80
2022-12-01T01:41:13.162Z,145.30
2022-12-01T01:42:13.290Z,146.30
2022-12-01T01:43:13.427Z,153.70
2022-12-01T01:44:13.554Z,151.10
2022-12-01T01:45:13.679Z,146.40
2022-12-01T01:46:13.880Z,151.90
2022-12-01T01:47:14.028Z,150.50
2022-12-01T01:48:14.173Z,164.00
2022-12-01T01:49:14.306Z,168.50
2022-12-01T01:50:14.452Z,145.70
2022-12-01T01:51:14.588Z,146.50
2022-12-01T01:52:14.734Z,153.20
2022-12-01T01:53:14.860Z,149.90
2022-12-01T01:54:15.007Z,140.00
2022-12-01T01:55:15.140Z,166.60
2022-12-01T01:56:15.308Z,150.50
2022-12-01T01:57:15.442Z,154.90
2022-12-01T01:58:15.570Z,151.50
2022-12-01T01:59:15.696Z,152.60
2022-12-01T02:00:15.845Z,145.10
2022-12-01T02:01:16.059Z,152.60
2022-12-01T02:02:16.160Z,149.60
2022-12-01T02:03:16.271Z,152.80
2022-12-01T02:04:16.412Z,151.40
2022-12-01T02:05:16.543Z,145.80
2022-12-01T02:06:16.684Z,148.90
2022-12-01T02:07:16.802Z,147.50
2022-12-01T02:08:16.928Z,151.60
2022-12-01T02:09:17.052Z,153.70
2022-12-01T02:10:17.186Z,144.60
2022-12-01T02:11:17.340Z,143.00
2022-12-01T02:12:17.459Z,146.90
2022-12-01T02:13:17.580Z,144.20
2022-12-01T02:14:17.820Z,152.20
2022-12-01T02:15:17.946Z,158.50
2022-12-01T02:16:18.169Z,145.90
2022-12-01T02:17:18.287Z,151.50
2022-12-01T02:18:18.428Z,156.00
2022-12-01T02:19:18.563Z,157.90
2022-12-01T02:20:18.695Z,152.40
2022-12-01T02:21:18.849Z,158.20
2022-12-01T02:22:18.987Z,147.80
2022-12-01T02:23:19.116Z,153.20
2022-12-01T02:24:19.254Z,151.90
2022-12-01T02:25:19.380Z,154.60
2022-12-01T02:26:19.525Z,150.90
2022-12-01T02:27:19.655Z,153.60
2022-12-01T02:28:19.814Z,151.30
2022-12-01T02:29:19.936Z,159.20
2022-12-01T02:30:20.081Z,155.20
2022-12-01T02:31:20.269Z,153.80
2022-12-01T02:32:20.385Z,151.30
2022-12-01T02:33:20.519Z,151.60
2022-12-01T02:34:20.665Z,152.20
2022-12-01T02:35:20.812Z,142.50
2022-12-01T02:36:20.974Z,150.90
2022-12-01T02:37:21.108Z,153.60
2022-12-01T02:38:21.238Z,143.80
2022-12-01T02:39:21.376Z,148.90
2022-12-01T02:40:21.511Z,148.30
2022-12-01T02:41:21.654Z,153.80
2022-12-01T02:42:21.799Z,148.00
2022-12-01T02:43:21.957Z,153.50
2022-12-01T02:44:22.104Z,143.70
2022-12-01T02:45:22.232Z,156.60
2022-12-01T02:46:22.441Z,158.20
2022-12-01T02:47:22.480Z,167.10
2022-12-01T02:48:22.628Z,169.50
2022-12-01T02:49:22.764Z,170.10
2022-12-01T02:50:22.914Z,171.50
2022-12-01T02:51:23.074Z,169.90
2022-12-01T02:52:23.325Z,175.90
2022-12-01T02:53:23.387Z,178.10
2022-12-01T02:54:23.553Z,170.70
2022-12-01T02:55:23.693Z,178.10
2022-12-01T02:56:23.863Z,173.90
2022-12-01T02:57:23.997Z,166.80
2022-12-01T02:58:24.179Z,164.10
2022-12-01T02:59:24.310Z,173.60
2022-12-01T03:00:24.454Z,166.70
2022-12-01T03:01:24.679Z,170.50
2022-12-01T03:02:24.819Z,165.00
2022-12-01T03:03:24.959Z,161.10
2022-12-01T03:04:25.194Z,162.60
2022-12-01T03:05:25.348Z,162.10
2022-12-01T03:06:25.518Z,156.20
2022-12-01T03:07:25.687Z,162.00
2022-12-01T03:08:25.855Z,155.20
2022-12-01T03:09:26.018Z,161.00
2022-12-01T03:10:26.173Z,154.10
2022-12-01T03:11:26.389Z,153.00
2022-12-01T03:12:26.574Z,152.90
2022-12-01T03:13:26.754Z,157.70
2022-12-01T03:14:26.917Z,151.60
2022-12-01T03:15:27.058Z,153.20
2022-12-01T03:16:27.327Z,159.30
2022-12-01T03:17:27.354Z,159.30
2022-12-01T03:18:27.508Z,155.50
2022-12-01T03:19:27.647Z,163.50
2022-12-01T03:20:27.790Z,162.60
2022-12-01T03:21:27.946Z,155.90
2022-12-01T03:22:28.098Z,158.40
2022-12-01T03:23:28.254Z,156.40
2022-12-01T03:24:28.386Z,157.40
2022-12-01T03:25:28.522Z,160.40
2022-12-01T03:26:28.686Z,156.00
2022-12-01T03:27:28.819Z,161.80
2022-12-01T03:28:28.968Z,157.70
2022-12-01T03:29:29.110Z,158.80
2022-12-01T03:30:29.245Z,167.00
2022-12-01T03:31:29.438Z,165.50
2022-12-01T03:32:29.568Z,164.10
2022-12-01T03:33:29.703Z,163.70
2022-12-01T03:34:29.853Z,166.00
2022-12-01T03:35:30.001Z,168.30
2022-12-01T03:36:30.197Z,156.50
2022-12-01T03:37:30.328Z,157.50
2022-12-01T03:38:30.482Z,168.50
2022-12-01T03:39:30.629Z,158.00
2022-12-01T03:40:30.793Z,167.30
2022-12-01T03:41:30.944Z,165.00
2022-12-01T03:42:31.089Z,168.70
2022-12-01T03:43:31.228Z,168.40
2022-12-01T03:44:39.174Z,169.50
2022-12-01T03:45:31.603Z,164.90
2022-12-01T03:46:31.822Z,169.70
2022-12-01T03:47:31.971Z,161.50
2022-12-01T03:48:32.120Z,160.40
2022-12-01T03:49:32.259Z,169.60
2022-12-01T03:50:32.421Z,160.90
2022-12-01T03:51:32.579Z,162.10
2022-12-01T03:52:32.731Z,168.60
2022-12-01T03:53:32.863Z,169.50
2022-12-01T03:54:33.020Z,174.00
2022-12-01T03:55:33.154Z,172.00
2022-12-01T03:56:33.321Z,169.10
2022-12-01T03:57:33.459Z,169.70
2022-12-01T03:58:33.611Z,168.30
2022-12-01T03:59:33.751Z,169.30
2022-12-01T04:00:33.918Z,172.40
2022-12-01T04:01:34.121Z,169.20
2022-12-01T04:02:34.337Z,173.90
2022-12-01T04:03:34.461Z,181.90
2022-12-01T04:04:34.616Z,177.20
2022-12-01T04:05:34.762Z,176.00
2022-12-01T04:06:34.933Z,179.90
2022-12-01T04:07:35.130Z,178.20
2022-12-01T04:08:35.268Z,180.90
2022-12-01T04:09:35.429Z,184.60
2022-12-01T04:10:35.563Z,186.30
2022-12-01T04:11:35.738Z,181.60
2022-12-01T04:12:35.896Z,188.10
2022-12-01T04:13:36.023Z,186.40
2022-12-01T04:14:36.171Z,178.70
2022-12-01T04:15:36.300Z,188.10
2022-12-01T04:16:36.579Z,182.70
2022-12-01T04:17:36.651Z,183.90
2022-12-01T04:18:36.791Z,189.30
2022-12-01T04:19:36.930Z,183.60
2022-12-01T04:20:37.085Z,180.10
2022-12-01T04:21:37.251Z,182.10
2022-12-01T04:22:37.422Z,178.60
2022-12-01T04:23:37.546Z,178.60
2022-12-01T04:24:37.706Z,176.60
2022-12-01T04:25:37.846Z,177.40
2022-12-01T04:26:38.008Z,180.40
2022-12-01T04:27:38.158Z,168.00
2022-12-01T04:28:38.309Z,180.60
2022-12-01T04:29:38.454Z,182.40
2022-12-01T04:30:38.587Z,166.60
2022-12-01T04:31:38.819Z,177.40
2022-12-01T04:32:38.878Z,176.20
2022-12-01T04:33:39.035Z,167.50
2022-12-01T04:34:39.184Z,170.00
2022-12-01T04:35:39.325Z,172.00
2022-12-01T04:36:39.495Z,163.80
2022-12-01T04:37:39.641Z,170.00
2022-12-01T04:38:39.788Z,170.90
2022-12-01T04:39:39.927Z,166.30
2022-12-01T04:40:40.074Z,172.20
2022-12-01T04:41:40.230Z,175.40
2022-12-01T04:42:40.380Z,170.30
2022-12-01T04:43:40.516Z,169.20
2022-12-01T04:44:40.671Z,171.50
2022-12-01T04:45:40.816Z,176.40
2022-12-01T04:46:41.116Z,176.80
2022-12-01T04:47:41.172Z,178.70
2022-12-01T04:48:41.340Z,184.30
2022-12-01T04:49:41.492Z,185.20
2022-12-01T04:50:41.647Z,184.30
2022-12-01T04:51:41.809Z,176.30
2022-12-01T04:52:41.970Z,184.30
2022-12-01T04:53:42.107Z,192.00
2022-12-01T04:54:42.275Z,192.80
2022-12-01T04:55:42.418Z,189.80
2022-12-01T04:56:42.576Z,183.20
2022-12-01T04:57:42.725Z,196.20
2022-12-01T04:58:42.889Z,187.70
2022-12-01T04:59:43.039Z,186.10
2022-12-01T05:00:43.273Z,192.50
2022-12-01T05:01:43.535Z,188.50
2022-12-01T05:02:43.711Z,188.40
2022-12-01T05:03:43.886Z,192.70
2022-12-01T05:04:44.085Z,185.80
2022-12-01T05:05:44.276Z,200.20
2022-12-01T05:06:44.474Z,192.40
2022-12-01T05:07:44.700Z,186.00
2022-12-01T05:08:44.841Z,192.20
2022-12-01T05:09:44.994Z,193.60
2022-12-01T05:10:45.163Z,195.10
2022-12-01T05:11:45.326Z,189.20
2022-12-01T05:12:45.472Z,188.40
2022-12-01T05:13:45.621Z,194.30
2022-12-01T05:14:45.796Z,189.40
2022-12-01T05:15:45.942Z,194.70
2022-12-01T05:16:46.135Z,192.40
2022-12-01T05:17:46.289Z,189.70
2022-12-01T05:18:46.508Z,189.10
2022-12-01T05:19:46.851Z,197.60
2022-12-01T05:20:46.819Z,185.60
2022-12-01T05:21:46.993Z,194.50
2022-12-01T05:23:05.002Z,192.60
2022-12-01T05:23:48.466Z,192.80
2022-12-01T05:24:47.397Z,186.00
2022-12-01T05:25:47.557Z,180.30
2022-12-01T05:26:47.740Z,183.10
2022-12-01T05:27:47.906Z,186.00
2022-12-01T05:28:48.065Z,183.70
2022-12-01T05:29:48.603Z,180.20
2022-12-01T05:30:48.380Z,180.60
2022-12-01T05:31:48.595Z,179.40
2022-12-01T05:32:48.746Z,178.90
2022-12-01T05:33:48.905Z,183.70
2022-12-01T05:34:49.075Z,179.90
2022-12-01T05:35:49.261Z,187.70
2022-12-01T05:36:49.430Z,182.50
2022-12-01T05:37:49.624Z,185.80
2022-12-01T05:38:49.776Z,190.40
2022-12-01T05:39:50.171Z,190.30
2022-12-01T05:40:50.122Z,177.80
2022-12-01T05:41:50.276Z,185.10
2022-12-01T05:42:50.472Z,192.30
2022-12-01T05:43:50.681Z,194.20
2022-12-01T05:44:50.883Z,191.40
2022-12-01T05:45:51.124Z,183.30
2022-12-01T05:46:51.180Z,180.80
2022-12-01T05:47:51.375Z,182.20
2022-12-01T05:48:51.549Z,188.80
2022-12-01T05:49:51.719Z,192.30
2022-12-01T05:50:51.889Z,186.60
2022-12-01T05:51:52.072Z,175.00
2022-12-01T05:52:52.262Z,179.50
2022-12-01T05:53:52.450Z,182.30
2022-12-01T05:54:52.667Z,181.00
2022-12-01T05:55:52.827Z,183.50
2022-12-01T05:56:53.008Z,187.30
2022-12-01T05:57:53.307Z,182.40
2022-12-01T05:58:53.376Z,180.20
2022-12-01T05:59:53.547Z,180.90
2022-12-01T06:00:53.708Z,181.00
2022-12-01T06:01:53.915Z,176.30
2022-12-01T06:02:54.004Z,174.60
2022-12-01T06:03:54.228Z,171.70
2022-12-01T06:04:54.377Z,170.30
2022-12-01T06:05:54.528Z,170.50
2022-12-01T06:06:54.686Z,169.60
2022-12-01T06:07:54.905Z,168.70
2022-12-01T06:08:55.035Z,166.80
2022-12-01T06:09:55.214Z,165.00
2022-12-01T06:10:55.381Z,164.00
2022-12-01T06:11:55.646Z,162.30
2022-12-01T06:12:55.707Z,161.30
2022-12-01T06:13:55.918Z,157.90
2022-12-01T06:14:56.114Z,162.60
2022-12-01T06:15:56.321Z,161.00
2022-12-01T06:16:56.565Z,164.70
2022-12-01T06:17:56.688Z,165.10
2022-12-01T06:18:56.773Z,163.40
2022-12-01T06:19:56.988Z,157.50
2022-12-01T06:20:57.177Z,160.10
2022-12-01T06:21:57.381Z,152.70
2022-12-01T06:22:57.586Z,154.70
2022-12-01T06:23:57.791Z,162.30
2022-12-01T06:24:58.168Z,160.10
2022-12-01T06:25:58.138Z,161.50
2022-12-01T06:26:58.412Z,163.60
2022-12-01T06:27:58.547Z,165.80
2022-12-01T06:28:58.668Z,167.40
2022-12-01T06:29:58.764Z,165.40
2022-12-01T06:31:03.230Z,159.20
2022-12-01T06:31:59.215Z,161.90
2022-12-01T06:32:59.334Z,165.70
2022-12-01T06:33:59.538Z,164.80
2022-12-01T06:34:59.755Z,162.80
2022-12-01T06:36:00.007Z,156.50
2022-12-01T06:37:00.152Z,162.20
2022-12-01T06:38:00.360Z,161.30
2022-12-01T06:39:00.545Z,168.30
2022-12-01T06:40:00.752Z,162.50
2022-12-01T06:41:00.923Z,162.90
2022-12-01T06:42:01.113Z,161.60
2022-12-01T06:43:01.303Z,163.10
2022-12-01T06:44:01.480Z,165.70
2022-12-01T06:45:01.744Z,170.80
2022-12-01T06:46:02.592Z,168.90
2022-12-01T06:47:02.030Z,162.30
2022-12-01T06:48:02.239Z,164.90
2022-12-01T06:49:02.415Z,167.40
2022-12-01T06:50:02.607Z,163.00
2022-12-01T06:51:02.838Z,158.20
2022-12-01T06:52:02.933Z,158.70
2022-12-01T06:53:03.134Z,161.30
2022-12-01T06:54:05.624Z,162.00
2022-12-01T06:55:03.513Z,157.70
2022-12-01T06:56:03.667Z,163.90
2022-12-01T06:57:03.779Z,161.30
2022-12-01T06:58:03.957Z,160.50
2022-12-01T06:59:04.057Z,163.90
2022-12-01T07:00:04.260Z,162.70
2022-12-01T07:01:04.427Z,159.20
2022-12-01T07:02:04.531Z,164.50
2022-12-01T07:03:04.755Z,163.10
2022-12-01T07:04:05.041Z,165.00
2022-12-01T07:05:05.124Z,164.30
2022-12-01T07:06:05.332Z,172.70
2022-12-01T07:07:05.515Z,180.00
2022-12-01T07:08:05.823Z,182.60
2022-12-01T07:09:05.923Z,182.70
2022-12-01T07:10:06.122Z,183.50
2022-12-01T07:11:06.305Z,216.70
2022-12-01T07:12:06.545Z,200.70
2022-12-01T07:13:06.731Z,286.80
2022-12-01T07:14:06.938Z,260.70
2022-12-01T07:15:07.101Z,236.10
2022-12-01T07:16:07.299Z,230.90
2022-12-01T07:17:07.562Z,240.30
2022-12-01T07:18:07.688Z,228.30
2022-12-01T07:19:07.762Z,220.00
2022-12-01T07:20:07.967Z,235.90
2022-12-01T07:21:08.146Z,264.20
2022-12-01T07:22:08.327Z,259.30
2022-12-01T07:23:08.525Z,303.20
2022-12-01T07:24:08.716Z,217.80
2022-12-01T07:25:08.882Z,221.00
2022-12-01T07:26:09.071Z,210.50
2022-12-01T07:27:09.275Z,225.20
2022-12-01T07:28:09.476Z,256.40
2022-12-01T07:29:09.645Z,233.50
2022-12-01T07:30:09.844Z,209.20
2022-12-01T07:31:10.065Z,220.70
2022-12-01T07:32:10.174Z,255.60
2022-12-01T07:33:10.364Z,217.00
2022-12-01T07:34:10.555Z,249.80
2022-12-01T07:35:10.737Z,220.40
2022-12-01T07:36:10.938Z,203.00
2022-12-01T07:37:11.115Z,231.30
2022-12-01T07:38:11.363Z,208.70
2022-12-01T07:39:11.438Z,212.10
2022-12-01T07:40:11.624Z,216.90
2022-12-01T07:41:11.834Z,214.10
2022-12-01T07:42:12.012Z,200.40
2022-12-01T07:43:12.218Z,195.30
2022-12-01T07:44:12.422Z,198.10
2022-12-01T07:45:12.608Z,200.90
2022-12-01T07:46:17.218Z,215.60
2022-12-01T07:47:13.948Z,222.40
2022-12-01T07:48:13.170Z,219.50
2022-12-01T07:49:13.381Z,209.60
2022-12-01T07:50:13.576Z,208.70
2022-12-01T07:51:13.740Z,201.80
2022-12-01T07:52:13.925Z,201.40
2022-12-01T07:53:14.122Z,223.30
2022-12-01T07:54:14.373Z,209.80
2022-12-01T07:55:14.527Z,213.40
2022-12-01T07:56:14.714Z,210.10
2022-12-01T07:57:14.952Z,205.90
2022-12-01T07:58:15.135Z,219.10
2022-12-01T07:59:15.447Z,219.90
2022-12-01T08:00:15.552Z,207.80
2022-12-01T08:01:15.838Z,217.00
2022-12-01T08:02:16.048Z,225.30
2022-12-01T08:03:16.231Z,242.10
2022-12-01T08:04:16.344Z,218.80
2022-12-01T08:05:16.589Z,230.60
2022-12-01T08:06:16.659Z,208.70
2022-12-01T08:07:16.826Z,221.70
2022-12-01T08:08:17.107Z,220.10
2022-12-01T08:09:17.205Z,251.50
2022-12-01T08:10:17.378Z,226.80
2022-12-01T08:11:17.562Z,273.20
2022-12-01T08:12:17.737Z,239.30
2022-12-01T08:13:17.920Z,256.80
2022-12-01T08:14:18.100Z,262.30
2022-12-01T08:15:18.268Z,256.40
2022-12-01T08:16:18.473Z,240.20
2022-12-01T08:17:18.636Z,242.70
2022-12-01T08:18:18.884Z,275.70
2022-12-01T08:19:18.939Z,281.00
2022-12-01T08:20:23.714Z,500.20
2022-12-01T08:21:20.260Z,323.20
2022-12-01T08:22:19.436Z,308.60
2022-12-01T08:23:19.618Z,305.80
2022-12-01T08:24:19.804Z,342.10
2022-12-01T08:25:19.973Z,381.90
2022-12-01T08:26:20.182Z,299.90
2022-12-01T08:27:20.354Z,281.80
2022-12-01T08:28:20.557Z,276.20
2022-12-01T08:29:20.736Z,250.20
2022-12-01T08:30:20.916Z,297.50
2022-12-01T08:31:21.143Z,283.40
2022-12-01T08:32:21.223Z,322.60
2022-12-01T08:33:21.422Z,273.70
2022-12-01T08:34:21.615Z,254.60
2022-12-01T08:35:21.782Z,275.20
2022-12-01T08:36:21.953Z,289.00
2022-12-01T08:37:22.122Z,348.00
2022-12-01T08:38:22.324Z,309.60
2022-12-01T08:39:22.503Z,323.00
2022-12-01T08:40:22.689Z,296.30
2022-12-01T08:41:22.871Z,298.80
2022-12-01T08:42:23.057Z,277.10
2022-12-01T08:43:49.649Z,273.10
2022-12-01T08:44:24.428Z,260.00
2022-12-01T08:45:23.508Z,258.40
2022-12-01T08:46:23.759Z,245.00
2022-12-01T08:47:23.813Z,254.10
2022-12-01T08:48:24.009Z,254.60
2022-12-01T08:49:24.188Z,259.60
2022-12-01T08:50:24.385Z,255.00
2022-12-01T08:51:24.560Z,252.60
2022-12-01T08:52:24.742Z,245.60
2022-12-01T08:53:25.059Z,235.00
2022-12-01T08:54:25.043Z,242.80
2022-12-01T08:55:25.210Z,247.40
2022-12-01T08:56:25.415Z,243.10
2022-12-01T08:57:25.701Z,255.80
2022-12-01T08:58:25.794Z,255.00
2022-12-01T08:59:25.964Z,250.20
2022-12-01T09:00:26.149Z,237.40
2022-12-01T09:01:26.425Z,243.20
2022-12-01T09:02:26.575Z,238.80
2022-12-01T09:03:26.758Z,246.50
2022-12-01T09:04:26.952Z,240.30
2022-12-01T09:05:27.121Z,249.20
2022-12-01T09:06:27.303Z,247.70
2022-12-01T09:07:27.476Z,251.90
2022-12-01T09:08:27.661Z,256.30
2022-12-01T09:09:27.842Z,254.10
2022-12-01T09:10:28.011Z,233.90
2022-12-01T09:11:28.180Z,245.50
2022-12-01T09:12:28.365Z,252.20
2022-12-01T09:13:28.548Z,258.80
2022-12-01T09:14:28.727Z,314.50
2022-12-01T09:15:28.888Z,253.20
2022-12-01T09:16:29.265Z,383.30
2022-12-01T09:17:29.227Z,312.50
2022-12-01T09:18:29.509Z,321.30
2022-12-01T09:19:29.577Z,318.20
2022-12-01T09:20:29.781Z,278.70
2022-12-01T09:21:29.947Z,284.00
2022-12-01T09:22:30.143Z,336.60
2022-12-01T09:23:30.356Z,269.90
2022-12-01T09:24:30.564Z,302.80
2022-12-01T09:25:30.790Z,245.90
2022-12-01T09:26:30.962Z,252.70
2022-12-01T09:27:31.181Z,251.10
2022-12-01T09:28:31.352Z,244.20
2022-12-01T09:29:31.528Z,261.20
2022-12-01T09:30:31.714Z,243.00
2022-12-01T09:31:31.966Z,263.50
2022-12-01T09:32:32.033Z,248.40
2022-12-01T09:33:32.217Z,234.40
2022-12-01T09:34:32.420Z,247.80
2022-12-01T09:35:32.616Z,263.40
2022-12-01T09:36:32.797Z,246.10
2022-12-01T09:37:32.971Z,240.70
2022-12-01T09:38:33.164Z,243.70
2022-12-01T09:39:33.345Z,240.50
2022-12-01T09:40:33.592Z,230.60
2022-12-01T09:41:33.680Z,234.50
2022-12-01T09:42:35.532Z,240.80
2022-12-01T09:43:34.047Z,230.30
2022-12-01T09:44:41.247Z,237.60
2022-12-01T09:45:35.073Z,242.30
2022-12-01T09:46:34.614Z,230.00
2022-12-01T09:47:35.509Z,233.60
2022-12-01T09:48:34.910Z,240.70
2022-12-01T09:49:35.077Z,236.40
2022-12-01T09:50:35.251Z,235.30
2022-12-01T09:51:35.417Z,241.40
2022-12-01T09:52:35.580Z,222.60
2022-12-01T09:53:35.764Z,231.80
2022-12-01T09:54:35.932Z,223.90
2022-12-01T09:55:36.104Z,220.80
2022-12-01T09:56:36.282Z,225.90
2022-12-01T09:57:36.447Z,226.20
2022-12-01T09:58:36.646Z,225.40
2022-12-01T09:59:36.841Z,232.00
2022-12-01T10:00:37.091Z,227.40
2022-12-01T10:01:37.359Z,234.90
2022-12-01T10:02:37.405Z,234.20
2022-12-01T10:03:37.567Z,244.30
2022-12-01T10:04:37.722Z,237.20
2022-12-01T10:05:51.317Z,232.40
2022-12-01T10:06:39.182Z,237.20
2022-12-01T10:07:38.285Z,235.20
2022-12-01T10:08:38.448Z,229.60
2022-12-01T10:09:38.606Z,236.90
2022-12-01T10:10:38.769Z,231.20
2022-12-01T10:11:38.916Z,238.60
2022-12-01T10:12:39.096Z,231.20
2022-12-01T10:13:39.485Z,228.70
2022-12-01T10:14:39.451Z,230.80
2022-12-01T10:15:39.593Z,239.50
2022-12-01T10:16:39.773Z,227.10
2022-12-01T10:17:39.933Z,228.90
2022-12-01T10:18:40.089Z,234.00
2022-12-01T10:19:40.248Z,222.70
2022-12-01T10:20:40.411Z,219.90
2022-12-01T10:21:40.569Z,228.20
2022-12-01T10:22:40.723Z,220.50
2022-12-01T10:23:40.885Z,231.50
2022-12-01T10:24:41.075Z,218.60
2022-12-01T10:25:41.253Z,224.20
2022-12-01T10:26:41.398Z,213.10
2022-12-01T10:27:41.567Z,215.50
2022-12-01T10:28:41.731Z,213.80
2022-12-01T10:29:47.206Z,212.90
2022-12-01T10:30:43.094Z,222.60
2022-12-01T10:31:42.289Z,216.00
2022-12-01T10:32:42.449Z,219.40
2022-12-01T10:33:42.599Z,209.80
2022-12-01T10:34:42.755Z,203.60
2022-12-01T10:35:42.901Z,211.20
2022-12-01T10:36:43.055Z,210.20
2022-12-01T10:37:43.283Z,198.70
2022-12-01T10:38:43.409Z,209.30
2022-12-01T10:39:43.569Z,217.10
2022-12-01T10:40:43.740Z,210.50
2022-12-01T10:41:43.913Z,212.70
2022-12-01T10:42:44.073Z,203.60
2022-12-01T10:43:44.243Z,207.00
2022-12-01T10:44:44.395Z,213.20
2022-12-01T10:45:44.645Z,206.50
2022-12-01T10:46:44.695Z,212.50
2022-12-01T10:47:44.838Z,222.50
2022-12-01T10:48:44.983Z,203.80
2022-12-01T10:49:45.153Z,206.90
2022-12-01T10:50:45.308Z,212.80
2022-12-01T10:51:45.483Z,204.10
2022-12-01T10:52:45.631Z,209.40
2022-12-01T10:53:45.781Z,206.90
2022-12-01T10:54:45.927Z,215.20
2022-12-01T10:55:48.037Z,203.10
2022-12-01T10:56:46.243Z,199.40
2022-12-01T10:57:46.409Z,202.90
2022-12-01T10:58:46.557Z,206.80
2022-12-01T10:59:46.802Z,195.90
2022-12-01T11:01:02.417Z,193.40
2022-12-01T11:01:48.007Z,186.00
2022-12-01T11:02:47.303Z,195.40
2022-12-01T11:03:47.410Z,192.00
2022-12-01T11:04:47.548Z,199.30
2022-12-01T11:05:47.717Z,188.00
2022-12-01T11:06:47.867Z,196.10
2022-12-01T11:07:48.105Z,196.20
2022-12-01T11:08:48.184Z,200.10
2022-12-01T11:09:48.692Z,199.90
2022-12-01T11:10:48.585Z,206.80
2022-12-01T11:11:48.762Z,198.90
2022-12-01T11:12:48.910Z,214.20
2022-12-01T11:13:49.073Z,208.10
2022-12-01T11:14:49.229Z,203.80
2022-12-01T11:15:49.413Z,193.50
2022-12-01T11:16:49.607Z,199.60
2022-12-01T11:17:49.770Z,187.80
2022-12-01T11:18:49.955Z,192.60
2022-12-01T11:19:50.358Z,192.70
2022-12-01T11:20:50.323Z,192.20
2022-12-01T11:21:50.474Z,187.80
2022-12-01T11:22:50.638Z,193.10
2022-12-01T11:23:50.819Z,188.40
2022-12-01T11:24:50.930Z,183.50
2022-12-01T11:25:51.102Z,193.20
2022-12-01T11:26:51.243Z,191.80
2022-12-01T11:27:51.417Z,207.00
2022-12-01T11:28:51.549Z,187.60
2022-12-01T11:29:51.997Z,170.10
2022-12-01T11:30:56.522Z,195.10
2022-12-01T11:31:52.094Z,196.10
2022-12-01T11:32:52.143Z,204.00
2022-12-01T11:33:52.324Z,203.00
2022-12-01T11:34:52.498Z,171.40
2022-12-01T11:35:52.662Z,185.30
2022-12-01T11:36:52.807Z,229.00
2022-12-01T11:38:21.179Z,218.70
2022-12-01T11:38:54.134Z,184.90
2022-12-01T11:39:53.290Z,186.00
2022-12-01T11:40:53.436Z,181.00
2022-12-01T11:41:53.590Z,166.20
2022-12-01T11:42:53.722Z,166.50
2022-12-01T11:44:01.493Z,158.20
2022-12-01T11:44:55.072Z,165.70
2022-12-01T11:45:54.324Z,161.80
2022-12-01T11:47:07.844Z,158.70
2022-12-01T11:47:55.558Z,158.80
2022-12-01T11:48:54.688Z,160.50
2022-12-01T11:49:54.840Z,158.30
2022-12-01T11:50:54.995Z,151.00
2022-12-01T11:51:55.141Z,153.90
2022-12-01T11:52:55.336Z,151.30
2022-12-01T11:53:55.512Z,160.70
2022-12-01T11:54:55.654Z,152.70
2022-12-01T11:55:56.850Z,165.00
2022-12-01T11:57:31.784Z,148.20
2022-12-01T11:57:58.118Z,152.40
2022-12-01T11:58:56.268Z,146.60
2022-12-01T11:59:56.443Z,151.70
2022-12-01T12:00:56.616Z,147.90
2022-12-01T12:01:56.820Z,159.80
2022-12-01T12:02:56.876Z,150.10
2022-12-01T12:03:57.104Z,149.90
2022-12-01T12:04:57.128Z,145.50
2022-12-01T12:06:01.362Z,147.40
2022-12-01T12:06:58.362Z,150.20
2022-12-01T12:07:57.587Z,145.10
2022-12-01T12:08:57.667Z,140.80
2022-12-01T12:09:57.839Z,144.50
2022-12-01T12:10:57.973Z,144.90
2022-12-01T12:11:58.122Z,140.50
2022-12-01T12:12:58.255Z,141.80
2022-12-01T12:13:58.424Z,144.00
2022-12-01T12:14:58.586Z,137.70
2022-12-01T12:15:58.797Z,139.80
2022-12-01T12:16:58.979Z,144.30
2022-12-01T12:17:59.174Z,141.30
2022-12-01T12:18:59.286Z,138.70
2022-12-01T12:20:07.753Z,138.10
2022-12-01T12:21:00.667Z,131.10
2022-12-01T12:22:00.338Z,137.70
2022-12-01T12:22:59.925Z,132.50
2022-12-01T12:24:00.090Z,134.10
2022-12-01T12:25:00.255Z,127.00
2022-12-01T12:26:00.416Z,129.50
2022-12-01T12:27:00.552Z,128.90
2022-12-01T12:28:00.699Z,128.50
2022-12-01T12:29:00.833Z,132.90
2022-12-01T12:30:00.969Z,137.40
2022-12-01T12:31:01.195Z,140.00